Time;durP1;ratioP1;P1;durP2;ratioP2;P2;SDS_P1;SDS_P2;PMS_P1;PMS_P2;Temp;Humidity;BMP_temperature;BMP_pressure;BME280_temperature;BME280_humidity;BME280_pressure;Samples;Min_cycle;Max_cycle;Signal;HPM_P1;HPM_P2
2023/04/21 00:01:53;;;;;;;20.80;13.57;;;;;;;7.38;79.26;97961.66;7381108;19;19943;-76
2023/04/21 00:04:20;;;;;;;21.80;14.85;;;;;;;7.36;79.23;97963.59;7387223;19;20356;-75
2023/04/21 00:06:47;;;;;;;21.85;13.82;;;;;;;7.37;79.39;97966.09;7375876;19;19933;-75
2023/04/21 00:09:15;;;;;;;21.90;13.10;;;;;;;7.34;79.61;97957.63;7388753;19;19914;-76
2023/04/21 00:11:43;;;;;;;21.98;13.45;;;;;;;7.36;79.63;97969.69;7381769;19;19922;-76
2023/04/21 00:14:09;;;;;;;22.23;15.15;;;;;;;7.35;79.64;97961.94;7384132;19;19918;-75
2023/04/21 00:16:37;;;;;;;23.27;13.95;;;;;;;7.35;79.49;97960.13;7383224;19;20144;-75
2023/04/21 00:19:05;;;;;;;22.65;14.27;;;;;;;7.35;79.61;97954.06;7385177;19;19926;-75
2023/04/21 00:21:33;;;;;;;21.92;13.02;;;;;;;7.33;79.79;97950.72;7388057;19;19943;-75
2023/04/21 00:24:00;;;;;;;22.67;13.75;;;;;;;7.36;79.66;97953.88;7384842;19;19919;-75
2023/04/21 00:26:27;;;;;;;25.17;16.55;;;;;;;7.35;79.66;97954.88;7381001;19;20492;-76
2023/04/21 00:28:54;;;;;;;26.48;14.98;;;;;;;7.33;79.76;97948.91;7378131;19;19943;-76
2023/04/21 00:31:22;;;;;;;27.48;14.48;;;;;;;7.33;79.80;97938.41;7381853;19;19919;-75
2023/04/21 00:33:48;;;;;;;24.27;14.68;;;;;;;7.35;79.83;97940.91;7379508;19;19922;-76
2023/04/21 00:36:15;;;;;;;23.48;14.73;;;;;;;7.34;79.83;97944.47;7386150;19;20376;-77
2023/04/21 00:38:42;;;;;;;24.33;14.25;;;;;;;7.35;79.78;97944.34;7383101;19;20338;-77
2023/04/21 00:41:09;;;;;;;21.50;12.88;;;;;;;7.35;79.53;97941.72;7382967;19;19922;-77
2023/04/21 00:43:36;;;;;;;20.27;12.45;;;;;;;7.31;79.65;97937.72;7383218;19;19947;-77
2023/04/21 00:46:03;;;;;;;23.13;15.02;;;;;;;7.31;79.53;97945.59;7382096;19;19914;-76
2023/04/21 00:48:30;;;;;;;22.13;12.93;;;;;;;7.31;79.55;97940.34;7384393;19;20673;-75
2023/04/21 00:50:58;;;;;;;23.75;13.93;;;;;;;7.31;79.49;97940.34;7376386;19;19922;-75
2023/04/21 00:53:26;;;;;;;21.15;12.95;;;;;;;7.30;79.67;97936.06;7385831;19;19918;-76
2023/04/21 00:55:53;;;;;;;25.52;15.30;;;;;;;7.31;79.62;97932.44;7381632;19;19930;-76
2023/04/21 00:58:20;;;;;;;26.58;15.18;;;;;;;7.25;79.57;97927.78;7385403;19;19918;-75
2023/04/21 01:00:47;;;;;;;27.05;15.63;;;;;;;7.20;79.39;97928.19;7378324;19;20359;-75
2023/04/21 01:03:14;;;;;;;26.63;14.70;;;;;;;7.19;79.62;97929.19;7384368;19;19937;-75
2023/04/21 01:05:41;;;;;;;26.00;14.68;;;;;;;7.21;79.78;97934.28;7378058;19;19922;-76
2023/04/21 01:08:10;;;;;;;24.25;13.88;;;;;;;7.18;79.54;97917.00;7381258;19;19918;-76
2023/04/21 01:10:37;;;;;;;25.10;14.77;;;;;;;7.20;79.60;97924.75;7386109;19;19947;-76
2023/04/21 01:13:04;;;;;;;22.48;13.32;;;;;;;7.21;79.49;97935.13;7380445;19;19994;-76
2023/04/21 01:15:31;;;;;;;25.85;14.40;;;;;;;7.22;79.51;97934.16;7384546;19;19923;-76
2023/04/21 01:17:58;;;;;;;29.27;15.20;;;;;;;7.22;79.48;97928.06;7378737;19;19959;-75
2023/04/21 01:20:25;;;;;;;23.10;13.77;;;;;;;7.21;79.48;97924.63;7384049;19;19982;-75
2023/04/21 01:22:52;;;;;;;26.42;13.65;;;;;;;7.19;79.41;97921.28;7377881;19;20013;-76
2023/04/21 01:25:21;;;;;;;25.25;15.05;;;;;;;7.16;79.64;97915.47;7383366;19;20350;-75
2023/04/21 01:27:48;;;;;;;24.83;14.50;;;;;;;7.14;79.43;97912.19;7380539;19;19922;-76
2023/04/21 01:30:15;;;;;;;22.20;13.80;;;;;;;7.09;79.31;97919.69;7387372;19;20565;-77
2023/04/21 01:32:42;;;;;;;25.13;13.80;;;;;;;7.06;79.30;97909.44;7382872;19;19914;-77
2023/04/21 01:35:08;;;;;;;25.42;14.55;;;;;;;7.03;79.20;97916.66;7382571;19;19978;-76
2023/04/21 01:37:37;;;;;;;24.00;13.55;;;;;;;7.01;79.22;97912.50;7382512;19;20390;-77
2023/04/21 01:40:06;;;;;;;25.35;14.70;;;;;;;6.94;79.13;97906.97;7379820;19;19918;-77
2023/04/21 01:42:34;;;;;;;25.15;13.98;;;;;;;6.94;79.01;97912.25;7383234;19;19926;-77
2023/04/21 01:45:01;;;;;;;22.63;12.75;;;;;;;6.90;79.16;97920.56;7379127;19;19981;-77
2023/04/21 01:47:29;;;;;;;24.27;13.45;;;;;;;6.85;79.26;97918.38;7385999;19;19947;-77
2023/04/21 01:49:55;;;;;;;21.75;13.18;;;;;;;6.84;78.89;97919.34;7380797;19;19926;-77
2023/04/21 01:52:22;;;;;;;24.08;13.85;;;;;;;6.81;79.02;97911.75;7382841;19;19919;-77
2023/04/21 01:54:52;;;;;;;22.35;13.02;;;;;;;6.77;79.03;97918.28;7377378;19;19994;-76
2023/04/21 01:57:18;;;;;;;23.63;13.60;;;;;;;6.77;78.89;97916.47;7380878;19;19927;-77
2023/04/21 01:59:45;;;;;;;23.30;12.10;;;;;;;6.73;78.63;97922.13;7379991;19;19914;-77
2023/04/21 02:02:12;;;;;;;24.10;12.60;;;;;;;6.68;78.61;97927.81;7380263;19;20587;-76
2023/04/21 02:04:39;;;;;;;21.50;12.27;;;;;;;6.68;79.32;97927.81;7384593;19;19935;-77
2023/04/21 02:07:06;;;;;;;24.35;12.57;;;;;;;6.71;79.44;97926.72;7366777;19;20640;-76
2023/04/21 02:09:33;;;;;;;21.25;12.60;;;;;;;6.71;79.48;97924.91;7346810;19;19930;-77
2023/04/21 02:12:00;;;;;;;22.05;11.60;;;;;;;6.70;79.39;97930.31;7376024;19;19915;-77
2023/04/21 02:14:27;;;;;;;28.77;13.27;;;;;;;6.70;79.62;97918.00;7387988;19;19922;-77
2023/04/21 02:16:55;;;;;;;21.15;11.70;;;;;;;6.68;79.54;97919.09;7385892;19;19915;-77
2023/04/21 02:19:22;;;;;;;22.25;12.15;;;;;;;6.62;79.43;97923.13;7387535;19;19914;-77
2023/04/21 02:21:49;;;;;;;16.45;10.77;;;;;;;6.63;79.71;97918.72;7384322;19;19922;-77
2023/04/21 02:24:15;;;;;;;15.93;9.23;;;;;;;6.63;79.53;97923.97;7390149;19;19923;-76
2023/04/21 02:26:44;;;;;;;20.15;13.13;;;;;;;6.60;79.43;97917.19;7384524;19;20561;-77
2023/04/21 02:29:11;;;;;;;21.95;11.93;;;;;;;6.62;79.53;97915.25;7383906;19;19936;-77
2023/04/21 02:31:38;;;;;;;19.08;10.40;;;;;;;6.56;79.35;97911.41;7385576;19;19918;-77
2023/04/21 02:34:23;;;;;;;18.48;11.13;;;;;;;6.59;79.60;97915.53;7383738;19;20538;-77
2023/04/21 02:36:50;;;;;;;20.23;11.82;;;;;;;6.59;79.66;97919.00;7385594;19;19926;-77
2023/04/21 02:39:17;;;;;;;49.65;13.88;;;;;;;6.62;79.58;97919.69;7386791;19;19922;-77
2023/04/21 02:41:45;;;;;;;19.13;10.05;;;;;;;6.66;79.94;97921.03;7380686;19;19922;-77
2023/04/21 02:44:11;;;;;;;22.48;11.98;;;;;;;6.68;79.73;97919.94;7381002;19;20407;-77
2023/04/21 02:46:40;;;;;;;18.02;10.38;;;;;;;6.71;80.00;97918.81;7387802;19;19919;-76
2023/04/21 02:49:07;;;;;;;17.48;9.57;;;;;;;6.71;79.76;97921.44;7379887;19;20611;-76
2023/04/21 02:51:34;;;;;;;17.25;10.80;;;;;;;6.73;80.00;97924.78;7386545;19;19918;-76
2023/04/21 02:54:00;;;;;;;16.30;10.65;;;;;;;6.74;79.72;97932.53;7380973;19;19926;-76
2023/04/21 02:56:27;;;;;;;17.73;10.40;;;;;;;6.74;79.73;97934.31;7388762;19;19918;-76
2023/04/21 02:58:54;;;;;;;21.20;11.35;;;;;;;6.73;79.82;97925.59;7383460;19;19948;-75
2023/04/21 03:01:21;;;;;;;22.98;11.02;;;;;;;6.75;79.76;97938.59;7384395;19;19926;-76
2023/04/21 03:03:48;;;;;;;18.10;11.77;;;;;;;6.77;79.82;97934.03;7383117;19;20340;-76
2023/04/21 03:06:15;;;;;;;18.35;10.85;;;;;;;6.78;79.77;97923.38;7384794;19;19922;-76
2023/04/21 03:08:42;;;;;;;20.10;11.77;;;;;;;6.78;79.82;97927.81;7386892;19;20280;-76
2023/04/21 03:11:09;;;;;;;17.40;10.82;;;;;;;6.79;79.91;97918.94;7385472;19;19953;-77
2023/04/21 03:13:36;;;;;;;17.55;12.43;;;;;;;6.76;79.61;97911.34;7386237;19;19919;-76
2023/04/21 03:16:02;;;;;;;17.33;9.95;;;;;;;6.71;79.79;97911.75;7380706;19;20423;-76
2023/04/21 03:18:29;;;;;;;19.27;11.25;;;;;;;6.73;79.80;97922.97;7385954;19;19923;-76
2023/04/21 03:21:00;;;;;;;26.02;10.50;;;;;;;6.72;79.96;97921.31;7378512;19;19918;-76
2023/04/21 03:23:27;;;;;;;18.00;9.65;;;;;;;6.73;79.91;97909.00;7388185;19;20652;-76
2023/04/21 03:25:54;;;;;;;29.50;11.40;;;;;;;6.73;80.06;97904.56;7383032;19;19947;-76
2023/04/21 03:28:20;;;;;;;16.13;8.90;;;;;;;6.76;80.28;97898.19;7383755;19;19927;-76
2023/04/21 03:30:47;;;;;;;20.40;10.70;;;;;;;6.77;80.13;97889.34;7383516;19;19939;-76
2023/04/21 03:33:14;;;;;;;16.92;10.93;;;;;;;6.79;80.16;97890.00;7384183;19;19921;-77
2023/04/21 03:35:41;;;;;;;24.25;10.55;;;;;;;6.75;79.89;97891.28;7384726;19;19930;-76
2023/04/21 03:38:08;;;;;;;21.58;11.18;;;;;;;6.70;80.02;97894.34;7381754;19;19923;-77
2023/04/21 03:40:34;;;;;;;17.27;9.90;;;;;;;6.67;79.98;97901.69;7385851;19;19960;-76
2023/04/21 03:43:02;;;;;;;19.20;11.02;;;;;;;6.69;80.11;97903.22;7383579;19;19919;-77
2023/04/21 03:45:29;;;;;;;27.15;11.38;;;;;;;6.69;80.07;97904.97;7388104;19;19982;-75
2023/04/21 03:47:57;;;;;;;18.23;9.60;;;;;;;6.72;79.99;97907.34;7385001;19;19922;-76
2023/04/21 03:50:24;;;;;;;17.10;10.02;;;;;;;6.72;80.06;97902.91;7385518;19;19918;-76
2023/04/21 03:52:51;;;;;;;17.25;9.80;;;;;;;6.70;79.89;97906.66;7383701;19;20369;-76
2023/04/21 03:55:18;;;;;;;17.08;9.15;;;;;;;6.73;80.11;97912.44;7387233;19;19929;-75
2023/04/21 03:57:45;;;;;;;17.60;9.57;;;;;;;6.75;80.03;97902.63;7391532;19;19933;-76
2023/04/21 04:00:12;;;;;;;16.17;10.32;;;;;;;6.78;80.09;97907.59;7381907;19;19961;-76
2023/04/21 04:02:39;;;;;;;16.60;9.25;;;;;;;6.76;80.04;97919.22;7390090;19;19923;-76
2023/04/21 04:05:07;;;;;;;22.73;11.57;;;;;;;6.73;80.16;97927.41;7383564;19;19939;-75
2023/04/21 04:07:34;;;;;;;19.38;10.15;;;;;;;6.71;80.06;97926.72;7386296;19;19918;-76
2023/04/21 04:10:00;;;;;;;19.02;10.65;;;;;;;6.71;80.06;97921.44;7383020;19;19918;-75
2023/04/21 04:12:27;;;;;;;20.42;11.52;;;;;;;6.74;80.28;97906.25;7387450;19;20492;-75
2023/04/21 04:14:54;;;;;;;16.17;9.68;;;;;;;6.77;80.27;97907.75;7378114;19;19929;-74
2023/04/21 04:17:21;;;;;;;23.50;12.50;;;;;;;6.75;80.19;97912.31;7387056;19;19914;-75
2023/04/21 04:19:48;;;;;;;20.42;10.60;;;;;;;6.77;80.17;97920.91;7384953;19;19926;-76
2023/04/21 04:22:15;;;;;;;19.25;10.68;;;;;;;6.76;80.11;97914.78;7383599;19;19929;-76
2023/04/21 04:24:43;;;;;;;20.10;10.00;;;;;;;6.78;80.12;97906.78;7382244;19;19918;-76
2023/04/21 04:27:12;;;;;;;17.08;9.98;;;;;;;6.77;80.34;97913.00;7381299;19;19914;-75
2023/04/21 04:29:40;;;;;;;32.22;11.73;;;;;;;6.76;80.05;97925.31;7386984;19;19927;-75
2023/04/21 04:32:09;;;;;;;18.77;10.98;;;;;;;6.79;80.32;97924.19;7382388;19;19919;-75
2023/04/21 04:34:37;;;;;;;17.70;10.50;;;;;;;6.80;80.15;97923.25;7384264;19;19956;-75
2023/04/21 04:37:03;;;;;;;19.85;9.60;;;;;;;6.82;80.31;97918.66;7383195;19;19947;-76
2023/04/21 04:39:31;;;;;;;20.90;11.40;;;;;;;6.84;80.34;97914.06;7387979;19;19929;-75
2023/04/21 04:41:58;;;;;;;20.67;11.15;;;;;;;6.87;80.29;97907.69;7379857;19;19923;-74
2023/04/21 04:44:25;;;;;;;19.55;10.35;;;;;;;6.88;80.33;97918.09;7385708;19;19939;-75
2023/04/21 04:46:52;;;;;;;19.13;10.73;;;;;;;6.84;80.11;97921.97;7387613;19;19951;-75
2023/04/21 04:49:20;;;;;;;19.92;10.77;;;;;;;6.82;80.11;97921.31;7386179;19;19930;-76
2023/04/21 04:51:49;;;;;;;17.20;9.45;;;;;;;6.85;80.13;97923.63;7380254;19;19940;-75
2023/04/21 04:54:16;;;;;;;16.80;10.23;;;;;;;6.89;80.39;97925.00;7384257;19;19918;-75
2023/04/21 04:56:43;;;;;;;20.70;10.18;;;;;;;6.92;80.40;97932.59;7389069;19;19922;-75
2023/04/21 04:59:10;;;;;;;21.45;12.43;;;;;;;6.90;80.28;97931.94;7385150;19;20290;-76
2023/04/21 05:01:38;;;;;;;21.77;12.25;;;;;;;6.91;80.21;97930.94;7386789;19;19915;-76
2023/04/21 05:04:05;;;;;;;18.08;11.45;;;;;;;6.92;80.42;97935.22;7387112;19;19929;-76
2023/04/21 05:06:32;;;;;;;17.67;9.93;;;;;;;6.97;80.44;97927.72;7390121;19;19951;-75
2023/04/21 05:08:59;;;;;;;19.42;11.45;;;;;;;7.01;80.42;97929.13;7386950;19;19922;-75
2023/04/21 05:11:26;;;;;;;28.05;11.98;;;;;;;6.97;80.37;97942.69;7386424;19;19919;-74
2023/04/21 05:13:53;;;;;;;19.95;10.98;;;;;;;7.00;80.46;97950.28;7384233;19;19926;-75
2023/04/21 05:16:19;;;;;;;22.00;12.35;;;;;;;7.05;80.51;97958.56;7387705;19;19939;-75
2023/04/21 05:18:49;;;;;;;19.85;11.25;;;;;;;7.08;80.52;97950.41;7387253;19;19922;-75
2023/04/21 05:21:24;;;;;;;22.38;13.38;;;;;;;7.08;80.62;97945.13;7386380;19;20344;-75
2023/04/21 05:23:50;;;;;;;17.30;11.23;;;;;;;7.12;80.46;97954.41;7385595;19;19918;-75
2023/04/21 05:26:17;;;;;;;22.00;13.55;;;;;;;7.12;80.18;97961.47;7387707;19;20286;-76
2023/04/21 05:28:44;;;;;;;19.23;12.00;;;;;;;7.07;80.21;97968.97;7386771;19;20595;-76
2023/04/21 05:31:11;;;;;;;18.30;11.57;;;;;;;7.07;80.45;97974.22;7379498;19;19926;-76
2023/04/21 05:33:37;;;;;;;21.58;13.00;;;;;;;6.99;80.57;97962.63;7383721;19;19922;-76
2023/04/21 05:36:08;;;;;;;20.33;11.57;;;;;;;7.01;80.28;97960.69;7379815;19;19930;-75
2023/04/21 05:38:35;;;;;;;20.92;12.32;;;;;;;7.06;80.57;97962.03;7385323;19;20026;-74
2023/04/21 05:41:03;;;;;;;16.95;10.05;;;;;;;7.11;80.62;97965.06;7381262;19;19926;-75
2023/04/21 05:43:33;;;;;;;21.52;12.52;;;;;;;7.08;80.43;97960.09;7385582;19;19926;-75
2023/04/21 05:46:07;;;;;;;22.40;12.82;;;;;;;7.09;80.55;97956.50;7382743;19;19918;-75
2023/04/21 05:48:34;;;;;;;22.45;12.98;;;;;;;7.09;80.39;97959.97;7383529;19;19922;-75
2023/04/21 05:51:12;;;;;;;21.30;10.98;;;;;;;7.13;80.58;97957.84;7380625;19;19923;-74
2023/04/21 05:53:39;;;;;;;25.00;12.15;;;;;;;7.14;80.64;97959.53;7388450;19;19931;-75
2023/04/21 05:56:08;;;;;;;24.65;13.43;;;;;;;7.15;80.42;97940.13;7385592;19;19987;-76
2023/04/21 05:58:35;;;;;;;22.55;14.80;;;;;;;7.22;80.53;97941.22;7386125;19;20272;-75
2023/04/21 06:01:02;;;;;;;25.02;13.15;;;;;;;7.22;80.52;97947.31;7383320;19;19922;-75
2023/04/21 06:03:30;;;;;;;26.35;14.60;;;;;;;7.29;80.70;97951.97;7385393;19;20384;-77
2023/04/21 06:06:02;;;;;;;25.05;12.73;;;;;;;7.33;80.71;97945.47;7383011;19;19922;-76
2023/04/21 06:08:29;;;;;;;21.25;12.40;;;;;;;7.38;80.56;97948.50;7386001;19;19922;-76
2023/04/21 06:10:56;;;;;;;22.05;12.85;;;;;;;7.44;80.59;97945.25;7384096;19;20021;-76
2023/04/21 06:13:23;;;;;;;26.58;16.02;;;;;;;7.51;80.89;97935.00;7387207;19;20277;-76
2023/04/21 06:15:50;;;;;;;19.75;12.18;;;;;;;7.59;80.73;97930.63;7388153;19;19923;-76
2023/04/21 06:18:17;;;;;;;22.60;13.50;;;;;;;7.66;80.65;97928.22;7385439;19;20071;-76
2023/04/21 06:20:50;;;;;;;22.63;14.02;;;;;;;7.67;80.53;97929.91;7385062;19;19919;-76
2023/04/21 06:23:17;;;;;;;22.85;14.15;;;;;;;7.69;80.79;97930.59;7385768;19;19914;-76
2023/04/21 06:25:44;;;;;;;24.85;14.18;;;;;;;7.67;80.63;97932.53;7381933;19;19910;-76
2023/04/21 06:28:11;;;;;;;23.75;14.95;;;;;;;7.75;80.62;97929.97;7380157;19;19919;-77
2023/04/21 06:30:38;;;;;;;24.30;13.88;;;;;;;7.83;80.81;97926.59;7384078;19;19915;-76
2023/04/21 06:33:05;;;;;;;20.73;13.25;;;;;;;7.95;81.10;97925.41;7382972;19;19947;-76
2023/04/21 06:35:32;;;;;;;23.92;15.80;;;;;;;8.02;81.05;97934.34;7376261;19;20302;-77
2023/04/21 06:37:59;;;;;;;24.67;16.42;;;;;;;7.99;80.54;97939.94;7381985;19;20274;-77
2023/04/21 06:40:26;;;;;;;24.35;13.77;;;;;;;7.84;81.19;97952.78;7382919;19;19914;-77
2023/04/21 06:42:53;;;;;;;22.42;12.75;;;;;;;7.80;81.03;97959.34;7385541;19;19917;-77
2023/04/21 06:45:19;;;;;;;26.58;14.70;;;;;;;7.91;81.11;97961.75;7386196;19;19931;-77
2023/04/21 06:47:46;;;;;;;22.50;13.15;;;;;;;7.97;81.54;97957.69;7385884;19;19943;-76
2023/04/21 06:50:13;;;;;;;23.67;14.02;;;;;;;8.13;81.76;97949.94;7380778;19;20510;-76
2023/04/21 06:52:40;;;;;;;25.13;14.07;;;;;;;8.30;81.72;97950.94;7384996;19;20032;-76
2023/04/21 06:55:07;;;;;;;25.05;13.85;;;;;;;8.44;81.86;97948.75;7382365;19;19930;-77
2023/04/21 06:57:34;;;;;;;26.50;14.15;;;;;;;8.64;82.13;97944.16;7384633;19;20355;-76
2023/04/21 07:00:00;;;;;;;24.27;13.50;;;;;;;8.87;82.63;97942.63;7379573;19;20614;-76
2023/04/21 07:02:27;;;;;;;27.55;15.98;;;;;;;9.14;82.91;97941.66;7390779;19;20496;-76
2023/04/21 07:04:54;;;;;;;25.55;14.30;;;;;;;9.31;82.64;97933.81;7387595;19;19915;-76
2023/04/21 07:07:21;;;;;;;27.02;14.27;;;;;;;9.45;82.68;97938.47;7393538;19;19919;-77
2023/04/21 07:09:47;;;;;;;25.20;15.55;;;;;;;9.56;82.37;97940.84;7392324;19;20265;-77
2023/04/21 07:12:14;;;;;;;25.30;13.95;;;;;;;9.65;82.38;97933.75;7387987;19;19922;-76
2023/04/21 07:14:41;;;;;;;26.48;16.55;;;;;;;9.72;82.20;97928.69;7392338;19;20782;-77
2023/04/21 07:17:08;;;;;;;23.83;14.10;;;;;;;9.71;81.64;97930.47;7394267;19;19915;-78
2023/04/21 07:19:35;;;;;;;19.80;13.55;;;;;;;9.75;81.54;97928.34;7393089;19;19923;-76
2023/04/21 07:22:02;;;;;;;23.85;14.23;;;;;;;9.66;80.92;97927.47;7387520;19;20344;-77
2023/04/21 07:24:31;;;;;;;20.15;12.43;;;;;;;9.33;79.97;97918.63;7394396;19;19919;-77
2023/04/21 07:26:57;;;;;;;24.58;16.63;;;;;;;9.39;80.50;97924.09;7392403;19;20567;-75
2023/04/21 07:29:25;;;;;;;22.17;14.15;;;;;;;9.48;80.59;97911.75;7388989;19;19951;-76
2023/04/21 07:31:52;;;;;;;18.85;11.70;;;;;;;9.54;80.16;97907.66;7388732;19;19922;-77
2023/04/21 07:34:20;;;;;;;20.55;13.13;;;;;;;9.58;79.59;97907.16;7390900;19;19938;-76
2023/04/21 07:36:46;;;;;;;21.83;13.45;;;;;;;9.60;79.69;97904.34;7398618;19;19931;-78
2023/04/21 07:39:13;;;;;;;22.63;14.23;;;;;;;9.68;79.83;97901.72;7398223;19;19947;-78
2023/04/21 07:41:40;;;;;;;22.95;13.23;;;;;;;9.77;79.25;97908.72;7402253;19;19930;-76
2023/04/21 07:44:07;;;;;;;21.92;13.23;;;;;;;9.73;78.83;97898.63;7397934;19;20022;-78
2023/04/21 07:46:33;;;;;;;21.48;12.50;;;;;;;9.44;78.28;97900.69;7399433;19;19911;-78
2023/04/21 07:49:00;;;;;;;20.42;12.60;;;;;;;9.45;78.63;97906.78;7395355;19;19972;-78
2023/04/21 07:51:30;;;;;;;18.50;11.73;;;;;;;9.38;78.50;97911.88;7398654;19;19943;-78
2023/04/21 07:53:57;;;;;;;20.48;13.10;;;;;;;9.35;78.14;97914.84;7397492;19;19918;-77
2023/04/21 07:56:24;;;;;;;20.63;12.77;;;;;;;9.44;78.35;97911.25;7397847;19;19944;-77
2023/04/21 07:58:51;;;;;;;17.30;11.98;;;;;;;9.51;78.56;97906.16;7400459;19;19927;-77
2023/04/21 08:01:19;;;;;;;19.90;12.80;;;;;;;9.52;78.24;97906.97;7393077;19;20377;-77
2023/04/21 08:03:46;;;;;;;17.95;12.45;;;;;;;9.62;77.93;97902.38;7392555;19;19930;-77
2023/04/21 08:06:13;;;;;;;19.60;12.63;;;;;;;9.78;77.80;97899.78;7389661;19;19936;-77
2023/04/21 08:08:40;;;;;;;19.55;12.55;;;;;;;9.97;77.24;97897.81;7393443;19;19914;-77
2023/04/21 08:11:07;;;;;;;20.15;13.25;;;;;;;10.22;77.74;97898.69;7390130;19;19951;-77
2023/04/21 08:13:36;;;;;;;20.08;11.70;;;;;;;10.44;77.84;97899.84;7391326;19;19929;-77
2023/04/21 08:16:03;;;;;;;16.80;11.13;;;;;;;10.63;77.38;97903.97;7388217;19;19919;-77
2023/04/21 08:18:30;;;;;;;16.55;12.85;;;;;;;10.66;76.28;97898.34;7389230;19;20262;-75
2023/04/21 08:20:57;;;;;;;18.30;11.30;;;;;;;10.64;75.78;97908.28;7382608;19;19995;-75
2023/04/21 08:23:24;;;;;;;18.52;11.68;;;;;;;10.78;75.87;97910.22;7389232;19;19944;-75
2023/04/21 08:25:50;;;;;;;18.23;11.50;;;;;;;10.79;75.16;97903.94;7392694;19;19915;-75
2023/04/21 08:28:17;;;;;;;23.33;12.52;;;;;;;10.89;75.20;97901.09;7387964;19;19927;-75
2023/04/21 08:30:44;;;;;;;18.58;12.55;;;;;;;11.08;75.28;97899.88;7389981;19;19918;-75
2023/04/21 08:33:12;;;;;;;16.35;10.13;;;;;;;11.14;75.26;97899.22;7388768;19;19922;-75
2023/04/21 08:35:40;;;;;;;15.50;10.57;;;;;;;10.99;74.55;97905.22;7386756;19;19938;-75
2023/04/21 08:38:26;;;;;;;16.58;11.23;;;;;;;11.21;75.21;97908.13;7386575;19;19919;-75
2023/04/21 08:40:54;;;;;;;17.15;13.18;;;;;;;11.33;74.55;97909.41;7390511;19;20316;-75
2023/04/21 08:43:21;;;;;;;13.93;10.40;;;;;;;11.51;74.64;97898.56;7387569;19;19923;-75
2023/04/21 08:45:49;;;;;;;12.93;9.95;;;;;;;11.68;73.39;97899.28;7391364;19;19936;-75
2023/04/21 08:48:18;;;;;;;14.80;10.40;;;;;;;11.81;73.71;97896.06;7386605;19;19949;-75
2023/04/21 08:50:47;;;;;;;12.15;9.43;;;;;;;11.99;73.49;97896.66;7384444;19;19919;-75
2023/04/21 08:53:15;;;;;;;13.10;9.07;;;;;;;11.89;72.28;97890.75;7386656;19;20637;-75
2023/04/21 08:55:42;;;;;;;11.88;8.52;;;;;;;12.10;73.93;97889.28;7384427;19;19926;-74
2023/04/21 08:58:09;;;;;;;13.55;9.88;;;;;;;12.03;72.92;97894.47;7387277;19;19918;-77
2023/04/21 09:00:36;;;;;;;13.85;9.68;;;;;;;12.07;74.20;97901.06;7389763;19;19939;-77
2023/04/21 09:03:04;;;;;;;13.85;9.73;;;;;;;12.16;74.29;97889.38;7387152;19;20339;-75
2023/04/21 09:05:45;;;;;;;;;;;;;;;12.30;73.39;97901.06;7391892;19;20273;-75
2023/04/21 09:08:15;;;;;;;11.55;7.57;;;;;;;12.48;72.91;97890.97;7385614;19;19930;-76
2023/04/21 09:10:46;;;;;;;9.98;7.55;;;;;;;12.63;70.16;97885.69;7387241;19;19921;-77
2023/04/21 09:13:13;;;;;;;11.10;7.30;;;;;;;12.89;70.68;97884.44;7383505;19;19922;-74
2023/04/21 09:15:45;;;;;;;10.43;7.30;;;;;;;12.98;70.79;97880.69;7389990;19;19922;-75
2023/04/21 09:18:15;;;;;;;9.23;6.38;;;;;;;13.00;70.32;97880.50;7386014;19;20663;-74
2023/04/21 09:20:44;;;;;;;8.93;6.60;;;;;;;13.05;70.09;97878.09;7385093;19;19940;-75
2023/04/21 09:23:11;;;;;;;7.35;6.05;;;;;;;13.26;68.71;97872.91;7382160;19;19921;-74
2023/04/21 09:25:43;;;;;;;11.82;7.30;;;;;;;13.53;70.79;97871.41;7379100;19;19926;-74
2023/04/21 09:28:12;;;;;;;9.35;6.68;;;;;;;13.56;69.16;97864.88;7381837;19;19953;-74
2023/04/21 09:30:40;;;;;;;8.57;6.30;;;;;;;13.42;68.54;97879.84;7384294;19;20391;-74
2023/04/21 09:33:14;;;;;;;8.18;6.22;;;;;;;13.62;68.74;97874.78;7383799;19;19922;-74
2023/04/21 09:35:59;;;;;;;9.57;8.00;;;;;;;13.75;69.93;97868.78;7387133;19;19934;-74
2023/04/21 09:38:26;;;;;;;8.43;6.20;;;;;;;13.90;69.14;97866.91;7388432;19;19922;-74
2023/04/21 09:40:59;;;;;;;6.82;5.65;;;;;;;14.02;69.81;97870.69;7388188;19;19944;-74
2023/04/21 09:43:27;;;;;;;6.82;4.88;;;;;;;14.08;67.43;97862.97;7385187;19;19926;-75
2023/04/21 09:45:54;;;;;;;6.32;5.30;;;;;;;14.11;68.06;97862.56;7388136;19;20498;-74
2023/04/21 09:48:24;;;;;;;8.82;5.63;;;;;;;14.20;68.54;97864.09;7380955;19;19914;-75
2023/04/21 09:50:52;;;;;;;5.93;5.00;;;;;;;14.60;66.97;97864.47;7383909;19;20004;-75
2023/04/21 09:53:39;;;;;;;6.38;5.32;;;;;;;14.96;66.96;97864.28;7386208;19;21593;-74
2023/04/21 09:56:16;;;;;;;7.65;4.70;;;;;;;15.06;64.88;97859.44;7384607;19;19931;-75
2023/04/21 09:58:49;;;;;;;;;;;;;;;15.15;64.09;97862.75;7385390;19;19919;-74
2023/04/21 10:01:16;;;;;;;6.05;4.35;;;;;;;15.34;63.57;97859.34;7384659;19;19939;-74
2023/04/21 10:03:44;;;;;;;6.45;5.20;;;;;;;15.37;62.84;97850.13;7382808;19;19922;-75
2023/04/21 10:06:11;;;;;;;6.75;4.55;;;;;;;15.25;63.31;97849.88;7380690;19;19915;-75
2023/04/21 10:08:39;;;;;;;8.48;6.15;;;;;;;15.08;62.92;97845.91;7386638;19;20519;-75
2023/04/21 10:11:06;;;;;;;6.82;4.55;;;;;;;14.80;62.68;97836.13;7383135;19;19939;-75
2023/04/21 10:13:33;;;;;;;7.68;4.60;;;;;;;14.70;64.44;97830.31;7383930;19;19951;-75
2023/04/21 10:16:06;;;;;;;7.88;6.65;;;;;;;14.81;67.11;97836.94;7385737;19;19914;-74
2023/04/21 10:18:43;;;;;;;6.68;5.35;;;;;;;14.90;62.86;97820.63;7386145;19;19947;-75
2023/04/21 10:21:13;;;;;;;6.72;5.30;;;;;;;15.28;62.72;97812.16;7377259;19;19919;-74
2023/04/21 10:23:44;;;;;;;6.50;5.03;;;;;;;15.83;64.59;97812.16;7384307;19;20021;-73
2023/04/21 10:26:13;;;;;;;6.10;5.45;;;;;;;15.94;61.71;97816.88;7383493;19;20499;-75
2023/04/21 10:28:55;;;;;;;7.10;5.72;;;;;;;16.41;59.96;97816.88;7385026;19;19976;-75
2023/04/21 10:31:30;;;;;;;6.88;5.93;;;;;;;16.11;59.19;97814.63;7380906;19;19914;-75
2023/04/21 10:34:06;;;;;;;6.25;5.20;;;;;;;15.54;61.79;97806.09;7390562;19;19918;-75
2023/04/21 10:36:50;;;;;;;7.35;5.72;;;;;;;15.48;61.52;97811.41;7390499;19;19931;-75
2023/04/21 10:39:41;;;;;;;8.75;5.68;;;;;;;15.21;62.57;97805.16;7389249;19;20367;-76
2023/04/21 10:42:23;;;;;;;6.90;5.38;;;;;;;15.68;64.40;97806.13;7387932;19;19944;-75
2023/04/21 10:44:56;;;;;;;7.20;5.15;;;;;;;16.59;61.18;97803.72;7391189;19;19923;-75
2023/04/21 10:47:32;;;;;;;7.47;6.53;;;;;;;17.42;59.24;97805.72;7391359;19;21711;-75
2023/04/21 10:50:10;;;;;;;6.68;5.00;;;;;;;17.87;57.02;97797.66;7390292;19;19930;-75
2023/04/21 10:52:37;;;;;;;6.35;5.00;;;;;;;18.13;56.39;97799.34;7388854;19;20384;-75
2023/04/21 10:55:06;;;;;;;6.15;4.40;;;;;;;18.48;56.71;97800.69;7385016;19;19914;-75
2023/04/21 10:57:34;;;;;;;7.15;5.18;;;;;;;19.11;55.09;97805.81;7389536;19;19926;-74
2023/04/21 11:00:01;;;;;;;8.10;5.63;;;;;;;19.39;53.52;97796.41;7393070;19;19922;-75
2023/04/21 11:02:27;;;;;;;7.03;5.18;;;;;;;19.68;53.26;97792.94;7388316;19;19938;-74
2023/04/21 11:04:54;;;;;;;6.45;5.25;;;;;;;19.87;51.58;97795.56;7386835;19;19930;-75
2023/04/21 11:07:22;;;;;;;5.85;5.35;;;;;;;19.68;50.25;97784.88;7388501;19;20244;-75
2023/04/21 11:10:01;;;;;;;4.80;3.83;;;;;;;20.54;50.36;97782.72;7388714;19;19931;-75
2023/04/21 11:12:30;;;;;;;5.65;4.50;;;;;;;21.07;47.38;97780.91;7383559;19;19922;-74
2023/04/21 11:14:57;;;;;;;5.72;4.47;;;;;;;21.57;48.17;97779.47;7389724;19;20415;-73
2023/04/21 11:17:24;;;;;;;5.18;4.68;;;;;;;21.99;46.78;97774.56;7388774;19;20959;-75
2023/04/21 11:19:53;;;;;;;4.25;3.85;;;;;;;22.61;46.22;97779.03;7386032;19;19918;-74
2023/04/21 11:22:22;;;;;;;4.45;3.80;;;;;;;23.25;43.74;97773.19;7387248;19;19915;-75
2023/04/21 11:24:52;;;;;;;4.97;4.30;;;;;;;23.28;40.75;97778.06;7391519;19;19919;-75
2023/04/21 11:27:21;;;;;;;3.72;3.25;;;;;;;22.77;41.62;97778.19;7385654;19;20192;-74
2023/04/21 11:29:49;;;;;;;5.47;3.97;;;;;;;21.92;44.88;97771.19;7388458;19;19953;-74
2023/04/21 11:32:16;;;;;;;4.60;3.78;;;;;;;21.59;46.30;97767.41;7387525;19;19923;-75